createdAt,value
2018-03-02T00:00:40.066Z,94097.57
2018-03-02T00:03:08.386Z,94096.39
2018-03-02T00:05:36.728Z,94087.86
2018-03-02T00:08:05.048Z,94079.25
2018-03-02T00:10:33.377Z,94072.53
2018-03-02T00:13:01.715Z,94076.27
2018-03-02T00:15:30.040Z,94077.30
2018-03-02T00:17:58.374Z,94077.88
2018-03-02T00:20:26.715Z,94068.94
2018-03-02T00:22:55.044Z,94066.62
2018-03-02T00:25:23.375Z,94057.14
2018-03-02T00:27:51.705Z,94053.59
2018-03-02T00:30:20.027Z,94055.42
2018-03-02T00:32:48.354Z,94051.44
2018-03-02T00:35:16.682Z,94047.11
2018-03-02T00:37:45.886Z,94039.13
2018-03-02T00:40:14.222Z,94024.28
2018-03-02T00:42:42.555Z,94024.05
2018-03-02T00:45:10.945Z,94023.03
2018-03-02T00:47:39.256Z,94020.40
2018-03-02T00:50:07.596Z,94023.30
2018-03-02T00:52:35.933Z,94023.41
2018-03-02T00:55:04.251Z,94024.53
2018-03-02T00:57:32.589Z,94012.34
2018-03-02T01:00:00.905Z,94009.47
2018-03-02T01:02:29.218Z,94007.03
2018-03-02T01:04:57.622Z,94010.28
2018-03-02T01:07:25.956Z,94004.27
2018-03-02T01:09:54.271Z,93994.66
2018-03-02T01:12:22.618Z,93992.78
2018-03-02T01:14:50.943Z,93990.86
2018-03-02T01:17:19.292Z,93987.37
2018-03-02T01:19:47.624Z,93986.93
2018-03-02T01:22:15.946Z,93989.13
2018-03-02T01:24:44.269Z,93989.67
2018-03-02T01:27:12.772Z,93973.85
2018-03-02T01:29:41.085Z,93972.47
2018-03-02T01:32:09.421Z,93971.96
2018-03-02T01:34:37.763Z,93964.73
2018-03-02T01:37:06.131Z,93959.43
2018-03-02T01:39:34.552Z,93955.78
2018-03-02T01:42:02.876Z,93948.72
2018-03-02T01:44:31.206Z,93939.43
2018-03-02T01:47:00.551Z,93931.66
2018-03-02T01:49:28.954Z,93931.19
2018-03-02T01:51:57.290Z,93926.76
2018-03-02T01:54:25.627Z,93923.75
2018-03-02T01:56:53.966Z,93925.50
2018-03-02T01:59:22.365Z,93918.03
2018-03-02T02:01:50.696Z,93923.68
2018-03-02T02:04:19.018Z,93925.20
2018-03-02T02:06:47.432Z,93924.02
2018-03-02T02:09:15.766Z,93922.44
2018-03-02T02:11:44.105Z,93922.57
2018-03-02T02:14:12.438Z,93917.33
2018-03-02T02:16:40.769Z,93923.58
2018-03-02T02:19:09.161Z,93918.85
2018-03-02T02:21:37.479Z,93918.58
2018-03-02T02:24:05.811Z,93920.94
2018-03-02T02:26:34.141Z,93908.06
2018-03-02T02:29:02.470Z,93901.67
2018-03-02T02:31:30.814Z,93902.22
2018-03-02T02:33:59.178Z,93900.97
2018-03-02T02:36:27.502Z,93901.83
2018-03-02T02:38:55.838Z,93901.39
2018-03-02T02:41:24.175Z,93897.73
2018-03-02T02:43:52.495Z,93891.70
2018-03-02T02:46:20.827Z,93905.22
2018-03-02T02:48:49.233Z,93904.99
2018-03-02T02:51:17.539Z,93909.00
2018-03-02T02:53:45.877Z,93916.79
2018-03-02T02:56:14.202Z,93916.23
2018-03-02T02:58:42.535Z,93914.02
2018-03-02T03:01:10.872Z,93915.67
2018-03-02T03:03:39.213Z,93912.04
2018-03-02T03:06:07.593Z,93903.30
2018-03-02T03:08:35.913Z,93901.58
2018-03-02T03:11:04.242Z,93903.50
2018-03-02T03:13:32.574Z,93908.91
2018-03-02T03:16:01.002Z,93909.42
2018-03-02T03:18:29.318Z,93895.63
2018-03-02T03:20:57.660Z,93897.05
2018-03-02T03:23:25.990Z,93898.42
2018-03-02T03:25:54.322Z,93901.98
2018-03-02T03:28:22.660Z,93891.80
2018-03-02T03:30:51.010Z,93889.91
2018-03-02T03:33:19.347Z,93895.94
2018-03-02T03:35:47.694Z,93882.73
2018-03-02T03:38:16.017Z,93879.70
2018-03-02T03:40:44.379Z,93872.83
2018-03-02T03:43:12.706Z,93872.00
2018-03-02T03:45:41.050Z,93874.36
2018-03-02T03:48:09.379Z,93867.66
2018-03-02T03:50:37.727Z,93866.64
2018-03-02T03:53:06.046Z,93861.39
2018-03-02T03:55:34.405Z,93862.70
2018-03-02T03:58:02.822Z,93848.82
2018-03-02T04:00:31.134Z,93845.63
2018-03-02T04:02:59.474Z,93841.52
2018-03-02T04:05:27.817Z,93840.53
2018-03-02T04:07:56.142Z,93831.23
2018-03-02T04:10:24.477Z,93838.33
2018-03-02T04:12:52.821Z,93838.84
2018-03-02T04:15:21.159Z,93832.59
2018-03-02T04:17:49.484Z,93830.37
2018-03-02T04:20:17.836Z,93829.52
2018-03-02T04:22:46.297Z,93818.34
2018-03-02T04:25:14.732Z,93819.09
2018-03-02T04:27:43.078Z,93822.89
2018-03-02T04:30:11.421Z,93819.69
2018-03-02T04:32:39.748Z,93824.32
2018-03-02T04:35:08.150Z,93818.44
2018-03-02T04:37:36.483Z,93821.59
2018-03-02T04:40:04.923Z,93816.55
2018-03-02T04:42:33.326Z,93812.36
2018-03-02T04:45:01.702Z,93806.92
2018-03-02T04:47:30.018Z,93816.81
2018-03-02T04:49:58.435Z,93808.56
2018-03-02T04:52:26.803Z,93801.30
2018-03-02T04:54:55.133Z,93796.19
2018-03-02T04:57:23.480Z,93793.88
2018-03-02T04:59:51.804Z,93794.42
2018-03-02T05:02:20.134Z,93796.70
2018-03-02T05:04:48.525Z,93789.77
2018-03-02T05:07:16.838Z,93786.81
2018-03-02T05:09:45.174Z,93781.86
2018-03-02T05:12:13.519Z,93777.19
2018-03-02T05:14:41.860Z,93770.63
2018-03-02T05:17:10.195Z,93764.81
2018-03-02T05:19:38.538Z,93755.06
2018-03-02T05:22:06.866Z,93748.38
2018-03-02T05:24:35.201Z,93749.03
2018-03-02T05:27:03.535Z,93748.22
2018-03-02T05:29:31.961Z,93748.89
2018-03-02T05:32:00.381Z,93748.73
2018-03-02T05:34:28.761Z,93748.52
2018-03-02T05:36:57.085Z,93739.65
2018-03-02T05:39:25.432Z,93748.48
2018-03-02T05:41:53.750Z,93747.30
2018-03-02T05:44:22.081Z,93753.52
2018-03-02T05:46:50.426Z,93749.81
2018-03-02T05:49:18.770Z,93755.47
2018-03-02T05:51:47.091Z,93752.79
2018-03-02T05:54:15.430Z,93751.16
2018-03-02T05:56:43.774Z,93751.48
2018-03-02T05:59:12.106Z,93749.69
2018-03-02T06:01:40.442Z,93758.99
2018-03-02T06:04:08.801Z,93765.33
2018-03-02T06:06:37.133Z,93755.73
2018-03-02T06:09:05.468Z,93756.55
2018-03-02T06:11:33.885Z,93746.09
2018-03-02T06:14:02.209Z,93736.78
2018-03-02T06:16:30.692Z,93734.47
2018-03-02T06:18:58.979Z,93726.11
2018-03-02T06:21:27.302Z,93716.55
2018-03-02T06:23:55.660Z,93713.96
2018-03-02T06:26:23.995Z,93712.96
2018-03-02T06:28:52.334Z,93718.73
2018-03-02T06:31:20.685Z,93712.77
2018-03-02T06:33:49.034Z,93709.88
2018-03-02T06:36:17.362Z,93707.41
2018-03-02T06:38:45.720Z,93721.78
2018-03-02T06:41:14.068Z,93718.59
2018-03-02T06:43:42.399Z,93726.68
2018-03-02T06:46:10.747Z,93726.70
2018-03-02T06:48:39.096Z,93726.88
2018-03-02T06:51:07.445Z,93725.14
2018-03-02T06:53:35.812Z,93728.94
2018-03-02T06:56:04.150Z,93733.59
2018-03-02T06:58:32.497Z,93727.75
2018-03-02T07:01:00.842Z,93722.45
2018-03-02T07:03:29.202Z,93717.03
2018-03-02T07:05:57.701Z,93719.63
2018-03-02T07:08:26.055Z,93707.42
2018-03-02T07:10:54.400Z,93715.33
2018-03-02T07:13:22.826Z,93709.02
2018-03-02T07:15:51.190Z,93709.30
2018-03-02T07:18:19.523Z,93707.79
2018-03-02T07:20:47.849Z,93701.88
2018-03-02T07:23:16.199Z,93698.26
2018-03-02T07:25:44.527Z,93701.81
2018-03-02T07:28:12.858Z,93702.08
2018-03-02T07:30:41.197Z,93699.16
2018-03-02T07:33:09.536Z,93702.22
2018-03-02T07:35:37.871Z,93699.73
2018-03-02T07:38:06.205Z,93699.20
2018-03-02T07:40:34.542Z,93693.57
2018-03-02T07:43:02.878Z,93682.53
2018-03-02T07:45:31.214Z,93677.50
2018-03-02T07:47:59.546Z,93664.56
2018-03-02T07:50:27.887Z,93665.09
2018-03-02T07:52:56.230Z,93668.23
2018-03-02T07:55:24.576Z,93665.50
2018-03-02T07:57:52.903Z,93657.86
2018-03-02T08:00:21.246Z,93654.55
2018-03-02T08:02:49.629Z,93650.53
2018-03-02T08:05:17.957Z,93644.02
2018-03-02T08:07:46.311Z,93646.47
2018-03-02T08:10:14.643Z,93651.55
2018-03-02T08:12:42.966Z,93648.97
2018-03-02T08:15:11.295Z,93648.66
2018-03-02T08:17:39.627Z,93645.62
2018-03-02T08:20:07.950Z,93631.59
2018-03-02T08:22:36.291Z,93626.95
2018-03-02T08:25:04.622Z,93629.22
2018-03-02T08:27:32.962Z,93626.81
2018-03-02T08:30:01.330Z,93634.38
2018-03-02T08:32:29.672Z,93630.11
2018-03-02T08:34:57.987Z,93636.58
2018-03-02T08:37:26.325Z,93638.41
2018-03-02T08:39:54.657Z,93628.45
2018-03-02T08:42:22.989Z,93634.40
2018-03-02T08:44:51.323Z,93637.14
2018-03-02T08:47:19.653Z,93643.97
2018-03-02T08:49:47.991Z,93639.11
2018-03-02T08:52:16.321Z,93634.52
2018-03-02T08:54:44.707Z,93636.86
2018-03-02T08:57:13.090Z,93635.48
2018-03-02T08:59:41.458Z,93622.03
2018-03-02T09:02:09.770Z,93619.83
2018-03-02T09:04:38.118Z,93619.30
2018-03-02T09:07:06.466Z,93619.78
2018-03-02T09:09:34.793Z,93614.63
2018-03-02T09:12:03.127Z,93618.66
2018-03-02T09:14:31.465Z,93619.95
2018-03-02T09:16:59.795Z,93616.85
2018-03-02T09:19:28.113Z,93607.42
2018-03-02T09:21:56.466Z,93602.54
2018-03-02T09:24:24.797Z,93605.91
2018-03-02T09:26:53.118Z,93609.44
2018-03-02T09:29:21.463Z,93607.12
2018-03-02T09:31:49.799Z,93615.89
2018-03-02T09:34:18.131Z,93599.58
2018-03-02T09:36:46.458Z,93597.83
2018-03-02T09:39:14.783Z,93591.17
2018-03-02T09:41:43.286Z,93592.88
2018-03-02T09:44:11.629Z,93597.12
2018-03-02T09:46:39.969Z,93588.95
2018-03-02T09:49:08.335Z,93586.59
2018-03-02T09:51:36.674Z,93581.02
2018-03-02T09:54:05.026Z,93577.23
2018-03-02T09:56:33.366Z,93584.16
2018-03-02T09:59:01.692Z,93588.11
2018-03-02T10:01:30.029Z,93584.84
2018-03-02T10:03:58.351Z,93577.16
2018-03-02T10:06:26.699Z,93582.66
2018-03-02T10:08:55.067Z,93571.69
2018-03-02T10:11:23.394Z,93563.15
2018-03-02T10:13:51.730Z,93561.97
2018-03-02T10:16:20.098Z,93562.33
2018-03-02T10:18:48.421Z,93551.07
2018-03-02T10:21:16.806Z,93557.89
2018-03-02T10:23:45.111Z,93562.80
2018-03-02T10:26:13.450Z,93561.67
2018-03-02T10:28:41.978Z,93557.20
2018-03-02T10:31:10.319Z,93559.61
2018-03-02T10:33:38.654Z,93552.95
2018-03-02T10:36:07.002Z,93552.02
2018-03-02T10:38:35.331Z,93540.50
2018-03-02T10:41:03.671Z,93539.59
2018-03-02T10:43:32.004Z,93548.35
2018-03-02T10:46:00.733Z,93533.47
2018-03-02T10:48:29.055Z,93536.33
2018-03-02T10:50:57.374Z,93529.80
2018-03-02T10:53:25.710Z,93530.72
2018-03-02T10:55:54.030Z,93530.54
2018-03-02T10:58:22.380Z,93526.37
2018-03-02T11:00:51.666Z,93515.77
2018-03-02T11:03:22.777Z,93514.14
2018-03-02T11:05:51.161Z,93508.00
2018-03-02T11:08:19.515Z,93511.88
2018-03-02T11:10:47.834Z,93510.79
2018-03-02T11:13:16.186Z,93509.33
2018-03-02T11:15:44.559Z,93502.66
2018-03-02T11:18:12.909Z,93500.56
2018-03-02T11:20:41.241Z,93507.47
2018-03-02T11:23:09.584Z,93495.86
2018-03-02T11:25:37.923Z,93492.28
2018-03-02T11:28:06.247Z,93489.80
2018-03-02T11:30:34.687Z,93488.42
2018-03-02T11:33:03.018Z,93493.08
2018-03-02T11:35:31.451Z,93492.43
2018-03-02T11:37:59.722Z,93495.28
2018-03-02T11:40:28.039Z,93490.23
2018-03-02T11:42:56.380Z,93479.78
2018-03-02T11:45:24.699Z,93485.17
2018-03-02T11:47:53.050Z,93474.27
2018-03-02T11:50:21.388Z,93469.98
2018-03-02T11:52:49.727Z,93463.13
2018-03-02T11:55:18.068Z,93469.81
2018-03-02T11:57:46.411Z,93462.75
2018-03-02T12:00:14.719Z,93465.29
2018-03-02T12:02:43.104Z,93463.36
2018-03-02T12:05:11.419Z,93472.62
2018-03-02T12:07:39.849Z,93463.45
2018-03-02T12:10:08.172Z,93462.87
2018-03-02T12:12:36.518Z,93457.22
2018-03-02T12:15:04.846Z,93456.93
2018-03-02T12:17:33.190Z,93449.55
2018-03-02T12:20:01.516Z,93456.19
2018-03-02T12:22:29.872Z,93463.34
2018-03-02T12:24:58.201Z,93456.53
2018-03-02T12:27:26.523Z,93462.92
2018-03-02T12:29:54.863Z,93466.95
2018-03-02T12:32:23.191Z,93465.52
2018-03-02T12:34:51.521Z,93466.48
2018-03-02T12:37:19.839Z,93469.95
2018-03-02T12:39:48.175Z,93462.65
2018-03-02T12:42:16.503Z,93459.01
2018-03-02T12:44:44.909Z,93460.45
2018-03-02T12:47:13.234Z,93468.89
2018-03-02T12:49:41.547Z,93472.95
2018-03-02T12:52:09.896Z,93470.83
2018-03-02T12:54:38.255Z,93460.91
2018-03-02T12:57:06.558Z,93464.74
2018-03-02T12:59:34.950Z,93471.16
2018-03-02T13:02:03.301Z,93467.40
2018-03-02T13:04:31.638Z,93461.20
2018-03-02T13:06:59.984Z,93462.34
2018-03-02T13:09:28.320Z,93468.86
2018-03-02T13:11:56.667Z,93469.40
2018-03-02T13:14:24.995Z,93464.84
2018-03-02T13:16:53.329Z,93476.96
2018-03-02T13:19:21.676Z,93468.45
2018-03-02T13:21:50.005Z,93473.23
2018-03-02T13:24:18.340Z,93475.69
2018-03-02T13:26:58.569Z,93480.70
2018-03-02T13:29:26.906Z,93493.48
2018-03-02T13:31:55.236Z,93501.63
2018-03-02T13:34:35.402Z,93505.42
2018-03-02T13:37:03.725Z,93525.61
2018-03-02T13:39:43.984Z,93537.73
2018-03-02T13:42:12.295Z,93570.21
2018-03-02T13:44:40.647Z,93585.97
2018-03-02T13:47:08.959Z,93596.19
2018-03-02T13:49:49.193Z,93611.58
2018-03-02T13:52:17.511Z,93625.45
2018-03-02T13:54:45.895Z,93648.87
2018-03-02T13:57:25.909Z,93660.59
2018-03-02T13:59:54.253Z,93670.62
2018-03-02T14:02:34.428Z,93672.23
2018-03-02T14:05:02.766Z,93684.30
2018-03-02T14:07:31.081Z,93700.93
2018-03-02T14:10:00.289Z,93700.23
2018-03-02T14:12:28.593Z,93712.81
2018-03-02T14:14:56.935Z,93727.29
2018-03-02T14:17:25.300Z,93728.43
2018-03-02T14:19:53.630Z,93740.55
2018-03-02T14:22:21.958Z,93746.30
2018-03-02T14:24:50.294Z,93747.61
2018-03-02T14:27:18.624Z,93745.98
2018-03-02T14:29:47.158Z,93752.16
2018-03-02T14:32:15.498Z,93763.92
2018-03-02T14:34:43.816Z,93755.92
2018-03-02T14:37:12.164Z,93775.66
2018-03-02T14:39:40.493Z,93771.38
2018-03-02T14:42:08.860Z,93767.34
2018-03-02T14:44:37.200Z,93729.53
2018-03-02T14:47:05.562Z,93724.00
2018-03-02T14:49:33.881Z,93725.93
2018-03-02T14:52:02.297Z,93730.46
2018-03-02T14:54:30.613Z,93736.29
2018-03-02T14:56:58.959Z,93731.77
2018-03-02T14:59:27.274Z,93738.25
2018-03-02T15:01:55.614Z,93735.77
2018-03-02T15:04:23.957Z,93731.58
2018-03-02T15:06:52.293Z,93732.98
2018-03-02T15:09:20.708Z,93737.47
2018-03-02T15:11:49.152Z,93742.01
2018-03-02T15:14:17.558Z,93748.48
2018-03-02T15:16:45.906Z,93755.56
2018-03-02T15:19:14.264Z,93754.38
2018-03-02T15:21:42.637Z,93762.53
2018-03-02T15:24:11.135Z,93769.44
2018-03-02T15:26:39.494Z,93774.85
2018-03-02T15:29:07.819Z,93785.36
2018-03-02T15:31:36.201Z,93782.70
2018-03-02T15:34:04.523Z,93783.77
2018-03-02T15:36:32.899Z,93797.94
2018-03-02T15:39:01.261Z,93796.80
2018-03-02T15:41:29.583Z,93799.33
2018-03-02T15:43:57.959Z,93797.55
2018-03-02T15:46:26.304Z,93796.39
2018-03-02T15:48:54.662Z,93795.64
2018-03-02T15:51:22.984Z,93799.31
2018-03-02T15:53:51.358Z,93794.91
2018-03-02T15:56:19.701Z,93803.40
2018-03-02T15:58:48.063Z,93800.15
2018-03-02T16:01:16.409Z,93809.09
2018-03-02T16:03:44.768Z,93810.24
2018-03-02T16:06:13.095Z,93809.16
2018-03-02T16:08:41.452Z,93820.07
2018-03-02T16:11:09.773Z,93823.24
2018-03-02T16:13:38.145Z,93833.91
2018-03-02T16:16:06.473Z,93828.41
2018-03-02T16:18:34.797Z,93825.92
2018-03-02T16:21:03.199Z,93837.70
2018-03-02T16:23:31.511Z,93842.68
2018-03-02T16:25:59.913Z,93845.31
2018-03-02T16:28:28.210Z,93846.89
2018-03-02T16:30:56.590Z,93852.00
2018-03-02T16:33:24.921Z,93854.51
2018-03-02T16:35:53.277Z,93862.16
2018-03-02T16:38:21.630Z,93866.58
2018-03-02T16:40:49.982Z,93875.97
2018-03-02T16:43:18.324Z,93881.94
2018-03-02T16:45:46.682Z,93888.98
2018-03-02T16:48:15.014Z,93885.61
2018-03-02T16:50:43.440Z,93895.59
2018-03-02T16:53:11.755Z,93903.65
2018-03-02T16:55:40.119Z,93908.70
2018-03-02T16:58:08.436Z,93911.06
2018-03-02T17:00:36.814Z,93907.99
2018-03-02T17:03:05.144Z,93908.52
2018-03-02T17:05:33.496Z,93910.84
2018-03-02T17:08:01.875Z,93916.00
2018-03-02T17:10:30.218Z,93916.47
2018-03-02T17:12:58.552Z,93922.32
2018-03-02T17:15:26.886Z,93926.31
2018-03-02T17:17:55.358Z,93936.76
2018-03-02T17:20:23.690Z,93939.00
2018-03-02T17:22:52.041Z,93943.11
2018-03-02T17:25:20.360Z,93955.08
2018-03-02T17:27:48.709Z,93954.72
2018-03-02T17:30:17.721Z,93960.55
2018-03-02T17:32:46.059Z,93962.00
2018-03-02T17:35:14.387Z,93969.23
2018-03-02T17:37:42.743Z,93969.88
2018-03-02T17:40:11.071Z,93970.31
2018-03-02T17:42:39.436Z,93968.19
2018-03-02T17:45:07.771Z,93971.66
2018-03-02T17:47:36.126Z,93973.27
2018-03-02T17:50:04.473Z,93980.20
2018-03-02T17:52:32.842Z,93985.77
2018-03-02T17:55:01.172Z,93984.66
2018-03-02T17:57:29.523Z,93989.41
2018-03-02T17:59:57.857Z,93990.34
2018-03-02T18:02:26.201Z,93990.41
2018-03-02T18:04:54.565Z,93989.77
2018-03-02T18:07:22.905Z,93995.09
2018-03-02T18:09:51.250Z,94000.73
2018-03-02T18:12:19.637Z,94000.28
2018-03-02T18:14:47.984Z,94000.44
2018-03-02T18:17:16.302Z,94002.47
2018-03-02T18:19:44.666Z,93994.67
2018-03-02T18:22:12.974Z,94002.84
2018-03-02T18:24:41.374Z,94004.87
2018-03-02T18:27:09.672Z,94005.61
2018-03-02T18:29:38.006Z,94007.35
2018-03-02T18:32:06.337Z,94009.03
2018-03-02T18:34:34.680Z,94012.19
2018-03-02T18:37:03.012Z,94013.22
2018-03-02T18:39:31.365Z,94013.21
2018-03-02T18:41:59.710Z,94018.50
2018-03-02T18:44:28.048Z,94020.56
2018-03-02T18:46:56.395Z,94027.55
2018-03-02T18:49:24.745Z,94027.20
2018-03-02T18:51:53.103Z,94030.12
2018-03-02T18:54:21.436Z,94024.77
2018-03-02T18:56:49.774Z,94030.09
2018-03-02T18:59:18.117Z,94028.64
2018-03-02T19:01:46.467Z,94027.56
2018-03-02T19:04:14.874Z,94023.61
2018-03-02T19:06:43.206Z,94030.22
2018-03-02T19:09:11.556Z,94033.73
2018-03-02T19:11:39.888Z,94030.31
2018-03-02T19:14:08.268Z,94036.66
2018-03-02T19:16:36.607Z,94038.02
2018-03-02T19:19:04.938Z,94028.23
2018-03-02T19:21:33.310Z,94022.20
2018-03-02T19:24:01.652Z,94020.62
2018-03-02T19:26:30.015Z,94029.95
2018-03-02T19:28:58.353Z,94031.84
2018-03-02T19:31:26.700Z,94034.63
2018-03-02T19:33:55.038Z,94030.48
2018-03-02T19:36:23.383Z,94032.57
2018-03-02T19:38:51.717Z,94031.57
2018-03-02T19:41:20.070Z,94031.39
2018-03-02T19:43:48.408Z,94032.55
2018-03-02T19:46:16.776Z,94031.44
2018-03-02T19:48:45.110Z,94028.52
2018-03-02T19:51:13.473Z,94025.34
2018-03-02T19:53:41.819Z,94025.39
2018-03-02T19:56:10.176Z,94034.72
2018-03-02T19:58:38.515Z,94030.98
2018-03-02T20:01:06.892Z,94033.06
2018-03-02T20:03:35.221Z,94030.31
2018-03-02T20:06:03.583Z,94030.18
2018-03-02T20:08:31.913Z,94026.62
2018-03-02T20:11:00.275Z,94024.95
2018-03-02T20:13:28.610Z,94027.96
2018-03-02T20:15:56.992Z,94027.92
2018-03-02T20:18:25.355Z,94023.96
2018-03-02T20:20:53.684Z,94022.92
2018-03-02T20:23:22.038Z,94025.94
2018-03-02T20:25:50.390Z,94033.70
2018-03-02T20:28:18.746Z,94020.99
2018-03-02T20:30:47.089Z,94024.23
2018-03-02T20:33:15.468Z,94033.46
2018-03-02T20:35:43.825Z,94026.92
2018-03-02T20:38:12.163Z,94029.81
2018-03-02T20:40:40.504Z,94027.65
2018-03-02T20:43:08.863Z,94032.47
2018-03-02T20:45:37.203Z,94020.63
2018-03-02T20:48:05.553Z,94022.46
2018-03-02T20:50:33.885Z,94025.63
2018-03-02T20:53:02.247Z,94027.05
2018-03-02T20:55:30.582Z,94032.98
2018-03-02T20:57:58.939Z,94031.00
2018-03-02T21:00:27.271Z,94031.16
2018-03-02T21:02:55.622Z,94028.54
2018-03-02T21:05:23.964Z,94021.45
2018-03-02T21:07:52.422Z,94023.28
2018-03-02T21:10:20.760Z,94031.20
2018-03-02T21:12:49.121Z,94028.17
2018-03-02T21:15:17.456Z,94027.05
2018-03-02T21:17:45.797Z,94024.80
2018-03-02T21:20:14.956Z,94036.77
2018-03-02T21:22:43.289Z,94034.80
2018-03-02T21:25:11.649Z,94032.95
2018-03-02T21:27:39.986Z,94033.55
2018-03-02T21:30:08.341Z,94039.73
2018-03-02T21:32:36.663Z,94043.19
2018-03-02T21:35:05.023Z,94039.73
2018-03-02T21:37:33.362Z,94036.02
2018-03-02T21:40:01.719Z,94032.41
2018-03-02T21:42:30.055Z,94034.21
2018-03-02T21:44:58.412Z,94041.07
2018-03-02T21:47:26.754Z,94032.45
2018-03-02T21:49:56.050Z,94031.38
2018-03-02T21:52:24.399Z,94030.97
2018-03-02T21:54:52.738Z,94034.27
2018-03-02T21:57:22.118Z,94030.97
2018-03-02T21:59:50.502Z,94030.70
2018-03-02T22:02:18.846Z,94036.17
2018-03-02T22:04:47.201Z,94032.95
2018-03-02T22:07:15.538Z,94037.38
2018-03-02T22:09:43.910Z,94034.72
2018-03-02T22:12:12.249Z,94036.66
2018-03-02T22:14:40.603Z,94039.12
2018-03-02T22:17:08.933Z,94035.56
2018-03-02T22:19:37.281Z,94032.59
2018-03-02T22:22:05.768Z,94032.28
2018-03-02T22:24:34.095Z,94031.88
2018-03-02T22:27:02.438Z,94030.38
2018-03-02T22:29:30.778Z,94022.30
2018-03-02T22:31:59.142Z,94023.22
2018-03-02T22:34:27.485Z,94021.86
2018-03-02T22:36:55.846Z,94028.58
2018-03-02T22:39:24.179Z,94027.43
2018-03-02T22:41:52.582Z,94032.63
2018-03-02T22:44:20.902Z,94029.66
2018-03-02T22:46:49.267Z,94031.24
2018-03-02T22:49:17.607Z,94028.92
2018-03-02T22:51:45.986Z,94031.81
2018-03-02T22:54:14.313Z,94030.59
2018-03-02T22:56:42.661Z,94030.73
2018-03-02T22:59:11.017Z,94027.09
2018-03-02T23:01:39.390Z,94027.58
2018-03-02T23:04:07.730Z,94022.88
2018-03-02T23:06:36.086Z,94020.65
2018-03-02T23:09:04.426Z,94017.28
2018-03-02T23:11:32.796Z,94015.75
2018-03-02T23:14:01.140Z,94012.35
2018-03-02T23:16:29.550Z,94016.88
2018-03-02T23:18:57.913Z,94027.50
2018-03-02T23:21:26.249Z,94025.73
2018-03-02T23:23:54.609Z,94021.09
2018-03-02T23:26:22.964Z,94029.96
2018-03-02T23:28:51.566Z,94024.29
2018-03-02T23:31:19.905Z,94022.28
2018-03-02T23:33:48.261Z,94019.19
2018-03-02T23:36:16.582Z,94025.53
2018-03-02T23:38:44.938Z,94022.69
2018-03-02T23:41:13.278Z,94025.43
2018-03-02T23:43:41.626Z,94029.23
2018-03-02T23:46:09.966Z,94023.41
2018-03-02T23:48:38.323Z,94019.70
2018-03-02T23:51:06.662Z,94023.92
2018-03-02T23:53:35.020Z,94034.93
2018-03-02T23:56:03.357Z,94024.61
2018-03-02T23:58:31.839Z,94028.66
